Time;durP1;ratioP1;P1;durP2;ratioP2;P2;SDS_P1;SDS_P2;PMS_P1;PMS_P2;Temp;Humidity;BMP_temperature;BMP_pressure;BME280_temperature;BME280_humidity;BME280_pressure;Samples;Min_cycle;Max_cycle;Signal;HPM_P1;HPM_P2
2021/05/27 00:00:54;;;;;;;21.02;15.02;;;10.20;99.90;;;11.64;91.24;100280.53;4921459;29;20039;-80
2021/05/27 00:03:20;;;;;;;18.95;14.65;;;10.20;99.90;;;11.62;91.47;100285.66;4922928;29;20350;-82
2021/05/27 00:05:46;;;;;;;24.30;16.42;;;10.20;99.90;;;11.42;91.82;100281.34;4921131;29;20059;-80
2021/05/27 00:08:12;;;;;;;23.52;16.35;;;10.20;99.90;;;11.67;90.94;100278.16;4937540;29;20032;-80
2021/05/27 00:10:39;;;;;;;20.08;15.85;;;10.20;99.90;;;11.68;91.09;100275.00;4938312;29;20035;-80
2021/05/27 00:13:06;;;;;;;22.25;14.73;;;10.20;99.90;;;11.72;91.07;100283.47;4942481;29;20032;-81
2021/05/27 00:15:32;;;;;;;23.20;15.68;;;10.20;99.90;;;11.57;91.52;100288.78;4941685;29;20028;-82
2021/05/27 00:17:59;;;;;;;21.67;14.90;;;10.20;99.90;;;11.68;90.89;100288.16;4940292;29;20032;-82
2021/05/27 00:20:26;;;;;;;20.40;14.77;;;10.20;99.90;;;11.57;91.00;100276.78;4943672;29;20126;-81
2021/05/27 00:22:53;;;;;;;18.08;14.32;;;10.20;99.90;;;11.61;90.49;100281.28;4943376;29;20431;-81
2021/05/27 00:25:19;;;;;;;19.95;14.98;;;10.20;99.90;;;11.63;90.23;100284.50;4943287;29;20066;-83
2021/05/27 00:27:48;;;;;;;17.27;13.60;;;10.20;99.90;;;11.50;91.25;100287.84;4943032;29;20032;-84
2021/05/27 00:30:16;;;;;;;19.88;14.18;;;10.20;99.90;;;11.56;90.69;100289.16;4925993;29;20040;-83
2021/05/27 00:32:42;;;;;;;16.02;13.23;;;10.20;99.90;;;11.67;90.21;100286.53;4940863;29;20036;-83
2021/05/27 00:35:11;;;;;;;17.58;12.23;;;10.30;99.90;;;11.76;89.88;100287.13;4941296;29;20128;-85
2021/05/27 00:37:37;;;;;;;20.45;12.85;;;10.20;99.90;;;11.69;89.83;100284.97;4927638;29;20039;-83
2021/05/27 00:40:11;;;;;;;18.17;12.20;;;10.20;99.90;;;11.78;89.48;100280.00;4927059;29;20028;-82
2021/05/27 00:42:38;;;;;;;17.00;13.32;;;10.30;99.90;;;11.72;89.66;100281.47;4925336;29;20043;-81
2021/05/27 00:45:11;;;;;;;17.75;13.77;;;10.30;99.90;;;11.61;89.94;100286.06;4940905;29;20631;-85
2021/05/27 00:47:40;;;;;;;17.13;14.18;;;10.30;99.90;;;11.58;90.44;100292.41;4933172;29;20029;-81
2021/05/27 00:50:20;;;;;;;17.92;13.88;;;10.30;99.90;;;11.70;89.73;100295.03;4938243;29;20039;-82
2021/05/27 00:52:54;;;;;;;18.95;13.68;;;10.30;99.90;;;11.67;89.96;100284.56;4944788;29;20031;-83
2021/05/27 00:55:31;;;;;;;21.67;14.52;;;10.30;99.90;;;11.69;89.70;100289.78;4906774;29;20048;-82
2021/05/27 00:57:59;;;;;;;19.40;14.57;;;10.30;99.90;;;11.57;90.02;100287.97;4907580;29;20031;-83
2021/05/27 01:00:27;;;;;;;17.17;12.88;;;10.30;99.90;;;11.57;89.81;100283.19;4921979;29;20029;-78
2021/05/27 01:02:54;;;;;;;16.40;12.95;;;10.30;99.90;;;11.62;89.05;100287.69;4936875;29;20040;-80
2021/05/27 01:05:20;;;;;;;16.95;12.95;;;10.30;99.90;;;11.61;89.32;100283.25;4943659;29;20031;-81
2021/05/27 01:07:48;;;;;;;16.15;12.20;;;10.30;99.90;;;11.75;88.37;100286.31;4941683;29;20086;-84
2021/05/27 01:10:14;;;;;;;15.55;12.15;;;10.30;99.90;;;11.73;88.74;100285.88;4930533;29;20036;-83
2021/05/27 01:12:41;;;;;;;15.15;12.65;;;10.30;99.90;;;11.86;88.57;100297.69;4922251;29;20104;-81
2021/05/27 01:18:16;;;;;;;16.27;11.07;;;10.30;99.90;;;11.76;89.47;100292.72;4924847;29;20546;-83
2021/05/27 01:20:52;;;;;;;14.05;11.18;;;10.30;99.90;;;11.76;88.89;100295.53;4940574;29;20059;-83
2021/05/27 01:23:21;;;;;;;14.32;12.18;;;10.30;99.90;;;11.73;89.14;100290.66;4943834;29;20039;-80
2021/05/27 01:25:53;;;;;;;16.77;12.45;;;10.30;99.90;;;11.66;89.27;100291.34;4943620;29;20031;-83
2021/05/27 01:28:20;;;;;;;16.80;12.85;;;10.30;99.90;;;11.64;89.79;100296.50;4941506;29;20066;-82
2021/05/27 01:30:48;;;;;;;18.20;13.20;;;10.30;99.90;;;11.72;89.38;100292.66;4941655;29;20036;-80
2021/05/27 01:33:18;;;;;;;16.83;14.00;;;10.30;99.90;;;11.67;89.55;100292.13;4942291;29;20035;-84
2021/05/27 01:35:46;;;;;;;23.60;14.77;;;10.30;99.90;;;11.60;89.92;100299.22;4942133;29;20059;-82
2021/05/27 01:38:24;;;;;;;19.90;14.30;;;10.20;99.90;;;11.71;89.80;100290.25;4942781;29;20032;-81
2021/05/27 01:40:55;;;;;;;23.55;15.10;;;10.30;99.90;;;11.68;89.88;100290.97;4942002;29;20082;-80
2021/05/27 01:43:23;;;;;;;25.27;17.00;;;10.30;99.90;;;11.71;89.64;100298.66;4941627;29;20060;-82
2021/05/27 01:45:50;;;;;;;24.30;17.88;;;10.20;99.90;;;11.62;90.46;100296.06;4940561;29;20119;-82
2021/05/27 01:48:16;;;;;;;24.38;18.17;;;10.20;99.90;;;11.60;90.82;100298.41;4940076;29;20043;-84
2021/05/27 01:50:47;;;;;;;23.98;17.58;;;10.30;99.90;;;11.70;89.93;100295.03;4941202;29;20484;-85
2021/05/27 01:53:15;;;;;;;26.63;18.55;;;10.30;99.90;;;11.71;89.92;100299.47;4943507;29;20079;-83
2021/05/27 01:55:51;;;;;;;23.58;17.70;;;10.20;99.90;;;11.72;90.46;100300.28;4941407;29;20035;-81
2021/05/27 01:58:18;;;;;;;31.58;19.52;;;10.20;99.90;;;11.57;91.11;100290.78;4956996;29;20051;-80
2021/05/27 02:00:45;;;;;;;27.90;21.02;;;10.20;99.90;;;11.45;92.10;100290.97;4942407;29;20110;-83
2021/05/27 02:03:11;;;;;;;31.10;20.05;;;10.20;99.90;;;11.57;91.99;100296.38;4940552;29;20052;-82
2021/05/27 02:05:37;;;;;;;29.17;21.35;;;10.10;99.90;;;11.60;91.39;100284.44;4939302;29;20055;-81
2021/05/27 02:08:06;;;;;;;29.02;21.65;;;10.20;99.90;;;11.56;92.62;100297.53;4939876;29;20036;-82
2021/05/27 02:10:32;;;;;;;31.92;21.30;;;10.20;99.90;;;11.61;91.95;100288.84;4924642;29;20034;-82
2021/05/27 02:12:58;;;;;;;28.35;21.58;;;10.20;99.90;;;11.64;91.57;100291.72;4935650;29;20064;-83
2021/05/27 02:15:24;;;;;;;31.63;22.10;;;10.20;99.90;;;11.56;92.23;100281.56;4920756;29;20029;-82
2021/05/27 02:17:50;;;;;;;32.72;22.08;;;10.20;99.90;;;11.67;91.86;100294.94;4920051;29;20530;-85
2021/05/27 02:20:17;;;;;;;31.27;23.30;;;10.10;99.90;;;11.53;92.91;100287.09;4920786;29;20043;-83
2021/05/27 02:22:44;;;;;;;32.67;22.90;;;10.20;99.90;;;11.67;92.13;100297.72;4919642;29;20052;-85
2021/05/27 02:25:12;;;;;;;28.23;21.48;;;10.20;99.90;;;11.69;92.27;100296.19;4934576;29;20126;-82
2021/05/27 02:27:38;;;;;;;36.70;23.15;;;10.20;99.90;;;11.58;92.84;100290.41;4935216;29;20032;-85
2021/05/27 02:30:06;;;;;;;32.33;22.58;;;10.20;99.90;;;11.57;93.16;100291.59;4937790;29;20118;-82
2021/05/27 02:32:32;;;;;;;31.58;22.42;;;10.10;99.90;;;11.49;93.67;100303.03;4921596;29;20059;-84
2021/05/27 02:34:58;;;;;;;35.03;22.90;;;10.10;99.90;;;11.43;94.22;100296.94;4921146;29;20036;-83
2021/05/27 02:37:24;;;;;;;34.67;22.45;;;10.10;99.90;;;11.49;94.28;100297.44;4935709;29;20024;-83
2021/05/27 02:39:50;;;;;;;33.13;21.55;;;10.10;99.90;;;11.65;93.37;100300.94;4920770;29;20426;-84
2021/05/27 02:42:15;;;;;;;29.33;20.52;;;10.10;99.90;;;11.60;93.96;100298.41;4921172;29;20365;-84
2021/05/27 02:44:41;;;;;;;31.25;21.23;;;10.10;99.90;;;11.52;94.62;100308.69;4919671;29;20035;-86
2021/05/27 02:47:07;;;;;;;28.20;20.25;;;10.10;99.90;;;11.53;94.46;100299.09;4935892;29;20035;-85
2021/05/27 02:49:33;;;;;;;33.15;21.92;;;10.10;99.90;;;11.57;94.67;100305.56;4936428;29;20032;-86
2021/05/27 02:51:59;;;;;;;28.73;21.88;;;10.10;99.90;;;11.58;94.72;100303.59;4937000;29;20030;-84
2021/05/27 02:54:25;;;;;;;28.25;20.17;;;10.10;99.90;;;11.56;94.89;100317.13;4922084;29;20048;-83
2021/05/27 02:56:52;;;;;;;29.13;21.23;;;10.10;99.90;;;11.57;94.57;100313.97;4920733;29;20079;-84
2021/05/27 02:59:18;;;;;;;26.65;20.40;;;10.10;99.90;;;11.60;94.64;100321.59;4920257;29;20374;-86
2021/05/27 03:01:44;;;;;;;29.80;20.45;;;10.10;99.90;;;11.57;94.93;100321.53;4919718;29;20032;-86
2021/05/27 03:04:10;;;;;;;27.00;19.55;;;10.10;99.90;;;11.47;95.16;100316.56;4919728;29;20515;-85
2021/05/27 03:06:36;;;;;;;29.05;20.17;;;10.10;99.90;;;11.30;96.65;100315.06;4921986;29;20032;-86
2021/05/27 03:09:02;;;;;;;26.60;19.58;;;10.10;99.90;;;11.24;96.91;100330.53;4937689;29;20055;-84
2021/05/27 03:11:29;;;;;;;23.85;18.55;;;10.10;99.90;;;11.33;96.65;100327.50;4941130;29;20059;-87
2021/05/27 03:13:56;;;;;;;23.85;17.60;;;10.10;99.90;;;11.29;96.79;100333.03;4942119;29;20040;-82
2021/05/27 03:16:22;;;;;;;24.65;17.85;;;10.10;99.90;;;11.34;96.42;100331.91;4952381;29;20043;-85
2021/05/27 03:18:49;;;;;;;23.20;16.17;;;10.10;99.90;;;11.23;96.34;100333.69;4965740;29;20028;-85
2021/05/27 03:21:15;;;;;;;27.83;17.35;;;10.10;99.90;;;11.17;96.22;100335.19;4946301;29;20040;-84
2021/05/27 03:23:41;;;;;;;24.55;14.70;;;10.00;99.90;;;11.20;95.37;100331.66;4958900;29;20090;-83
2021/05/27 03:26:07;;;;;;;22.85;15.10;;;10.00;99.90;;;11.15;95.75;100337.53;4943802;29;20051;-87
2021/05/27 03:28:33;;;;;;;22.92;14.77;;;9.90;99.90;;;11.09;95.28;100342.59;4943401;29;20043;-82
2021/05/27 03:30:58;;;;;;;25.55;14.10;;;9.90;99.90;;;11.08;95.20;100344.59;4942810;29;20036;-82
2021/05/27 03:33:25;;;;;;;23.10;15.27;;;9.90;99.90;;;11.02;95.34;100345.25;4957280;29;20130;-84
2021/05/27 03:35:51;;;;;;;22.05;14.75;;;9.90;99.90;;;10.98;95.87;100350.78;4960731;28;20042;-87
2021/05/27 03:38:17;;;;;;;33.00;14.98;;;9.80;99.90;;;10.95;96.25;100347.91;4945780;29;20028;-87
2021/05/27 03:40:43;;;;;;;26.45;16.83;;;9.80;99.90;;;10.89;96.42;100355.78;4946988;29;20036;-85
2021/05/27 03:43:10;;;;;;;29.30;15.98;;;9.80;99.90;;;10.95;96.28;100350.69;4945105;29;20480;-85
2021/05/27 03:45:36;;;;;;;26.33;15.00;;;9.80;99.90;;;10.93;95.42;100350.25;4945130;29;20388;-84
2021/05/27 03:48:04;;;;;;;23.45;14.93;;;9.80;99.90;;;10.92;95.94;100355.03;4943117;29;20028;-82
2021/05/27 03:50:31;;;;;;;25.50;15.20;;;9.70;99.90;;;10.95;96.14;100359.06;4943914;29;20039;-86
2021/05/27 03:52:59;;;;;;;28.42;14.40;;;9.70;99.90;;;10.91;95.98;100358.22;4944482;29;20028;-85
2021/05/27 03:55:28;;;;;;;27.38;14.93;;;9.70;99.90;;;10.97;95.12;100356.75;4960096;29;20032;-85
2021/05/27 03:57:54;;;;;;;34.17;15.27;;;9.70;99.90;;;10.91;95.22;100361.81;4943888;29;20028;-84
2021/05/27 04:03:08;;;;;;;28.75;13.15;;;9.70;99.90;;;10.90;95.29;100359.38;4944122;29;20030;-83
2021/05/27 04:08:21;;;;;;;33.08;15.30;;;9.70;99.90;;;10.92;95.60;100360.63;4944610;29;20058;-85
2021/05/27 04:10:48;;;;;;;26.27;12.70;;;9.70;99.90;;;10.99;95.31;100369.16;4938800;29;20040;-82
2021/05/27 04:13:16;;;;;;;22.45;12.38;;;9.70;99.90;;;10.89;95.53;100364.16;4939129;29;20137;-84
2021/05/27 04:15:43;;;;;;;22.02;12.10;;;9.70;99.90;;;10.83;95.76;100362.84;4924194;29;20032;-86
2021/05/27 04:18:17;;;;;;;26.73;13.07;;;9.60;99.90;;;10.85;96.15;100368.84;4938389;29;20039;-84
2021/05/27 04:20:51;;;;;;;25.80;13.07;;;9.70;99.90;;;10.86;96.17;100372.47;4938871;29;20114;-82
2021/05/27 04:23:35;;;;;;;18.33;11.10;;;9.60;99.90;;;10.74;95.64;100378.19;4924020;29;20083;-83
2021/05/27 04:26:14;;;;;;;19.48;10.80;;;9.60;99.90;;;10.72;95.68;100384.16;4939312;29;20039;-83
2021/05/27 04:28:44;;;;;;;24.20;12.05;;;9.60;99.90;;;10.78;95.37;100381.88;4924940;29;20032;-83
2021/05/27 04:31:17;;;;;;;27.70;12.80;;;9.60;99.90;;;10.80;95.81;100383.13;4925355;29;20103;-83
2021/05/27 04:33:42;;;;;;;23.00;11.85;;;9.60;99.90;;;10.72;95.93;100391.72;4926105;29;20036;-84
2021/05/27 04:36:17;;;;;;;21.40;11.23;;;9.50;99.90;;;10.75;96.04;100391.00;4925459;29;20449;-86
2021/05/27 04:38:47;;;;;;;21.60;12.57;;;9.50;99.90;;;10.79;95.68;100394.69;4939822;29;20028;-83
2021/05/27 04:41:15;;;;;;;23.65;11.43;;;9.50;99.90;;;10.81;96.11;100395.94;4939867;29;20036;-86
2021/05/27 04:43:42;;;;;;;23.77;11.93;;;9.60;99.90;;;10.75;96.51;100402.16;4939527;29;20028;-83
2021/05/27 04:46:09;;;;;;;23.92;13.20;;;9.60;99.90;;;10.75;96.77;100402.16;4923816;29;20086;-83
2021/05/27 04:48:37;;;;;;;26.08;12.40;;;9.60;99.90;;;10.81;95.84;100409.09;4924429;29;20481;-85
2021/05/27 04:51:04;;;;;;;24.92;12.82;;;9.60;99.90;;;10.71;96.04;100413.25;4939889;29;20040;-82
2021/05/27 04:53:31;;;;;;;18.42;11.45;;;9.60;99.90;;;10.75;95.80;100408.56;4947388;29;20042;-85
2021/05/27 04:55:58;;;;;;;21.85;12.32;;;9.60;99.90;;;10.70;95.13;100405.22;4943443;29;20032;-85
2021/05/27 04:58:25;;;;;;;20.40;12.80;;;9.60;99.90;;;10.73;96.10;100412.88;4942191;29;20038;-85
2021/05/27 05:00:52;;;;;;;21.83;12.65;;;9.60;99.90;;;10.71;96.32;100421.63;4958732;29;20043;-84
2021/05/27 05:03:18;;;;;;;22.70;11.70;;;9.60;99.90;;;10.67;95.69;100419.91;4942733;29;20181;-87
2021/05/27 05:05:45;;;;;;;22.73;12.45;;;9.50;99.90;;;10.66;96.23;100418.31;4943285;29;20055;-85
2021/05/27 05:08:11;;;;;;;19.17;13.00;;;9.50;99.90;;;10.75;96.47;100422.53;4942257;29;20027;-86
2021/05/27 05:10:38;;;;;;;22.55;12.80;;;9.60;99.90;;;10.74;96.15;100434.88;4944062;29;20035;-83
2021/05/27 05:13:07;;;;;;;27.58;13.07;;;9.50;99.90;;;10.71;96.41;100426.41;4941979;29;20118;-86
2021/05/27 05:15:41;;;;;;;26.35;14.63;;;9.50;99.90;;;10.77;96.31;100430.53;4961600;29;20028;-84
2021/05/27 05:18:13;;;;;;;22.75;14.52;;;9.50;99.90;;;10.82;95.81;100435.84;4944964;29;20392;-83
2021/05/27 05:20:50;;;;;;;22.20;13.15;;;9.60;99.90;;;10.71;96.25;100430.00;4945312;29;20027;-84
2021/05/27 05:23:17;;;;;;;19.40;12.75;;;9.50;99.90;;;10.68;96.79;100432.72;4945694;29;20035;-87
2021/05/27 05:25:44;;;;;;;17.48;10.57;;;9.50;99.90;;;10.70;96.26;100438.75;4945301;29;20039;-85
2021/05/27 05:28:14;;;;;;;18.30;10.73;;;9.50;99.90;;;10.68;96.42;100436.34;4962888;29;20172;-86
2021/05/27 05:30:41;;;;;;;19.10;10.43;;;9.50;99.90;;;10.75;96.13;100435.69;4944769;29;20241;-84
2021/05/27 05:33:09;;;;;;;21.00;10.68;;;9.50;99.90;;;10.74;96.58;100437.66;4955194;29;20087;-84
2021/05/27 05:35:35;;;;;;;14.85;9.73;;;9.50;99.90;;;10.66;96.39;100437.88;4956997;28;20048;-83
2021/05/27 05:38:01;;;;;;;19.10;10.15;;;9.60;99.90;;;10.65;96.11;100436.25;4949618;29;20028;-82
2021/05/27 05:40:30;;;;;;;17.80;9.75;;;9.60;99.90;;;10.76;95.80;100440.06;4949576;29;20028;-82
2021/05/27 05:42:57;;;;;;;18.73;10.52;;;9.60;99.90;;;10.74;96.02;100436.84;4960207;29;20028;-87
2021/05/27 05:45:25;;;;;;;20.10;10.50;;;9.60;99.90;;;10.71;96.38;100445.97;4944087;29;20032;-83
2021/05/27 05:47:52;;;;;;;17.67;10.07;;;9.60;99.90;;;10.76;95.81;100449.28;4944397;29;20053;-83
2021/05/27 05:53:09;;;;;;;21.45;10.70;;;9.60;99.90;;;10.91;95.63;100442.03;4942653;29;20039;-85
2021/05/27 05:55:37;;;;;;;19.98;10.18;;;9.60;99.90;;;10.88;94.67;100448.34;4943434;29;20032;-84
2021/05/27 05:58:04;;;;;;;22.58;11.48;;;9.70;99.90;;;10.99;95.24;100450.22;4926900;29;20039;-84
2021/05/27 06:00:32;;;;;;;17.85;11.10;;;9.70;99.90;;;11.08;94.79;100449.97;4942259;29;20028;-84
2021/05/27 06:03:01;;;;;;;19.95;12.45;;;9.80;99.90;;;11.05;94.96;100451.53;4944925;29;20028;-85
2021/05/27 06:05:26;;;;;;;18.75;13.25;;;9.80;99.90;;;11.06;95.38;100460.72;4928158;29;20492;-85
2021/05/27 06:07:55;;;;;;;23.67;14.32;;;9.80;99.90;;;11.16;94.84;100451.78;4928030;29;20036;-86
2021/05/27 06:10:23;;;;;;;22.15;13.18;;;9.90;99.90;;;11.05;94.76;100457.13;4940161;29;20051;-86
2021/05/27 06:12:51;;;;;;;24.58;14.45;;;9.90;99.90;;;11.15;95.17;100460.50;4945264;29;20027;-86
2021/05/27 06:15:21;;;;;;;22.92;14.85;;;9.90;99.90;;;11.25;93.97;100466.34;4946022;29;20477;-86
2021/05/27 06:17:49;;;;;;;21.88;14.50;;;10.10;99.90;;;11.55;93.59;100458.19;4957777;29;20168;-85
2021/05/27 06:20:16;;;;;;;24.00;14.00;;;10.20;99.90;;;11.43;92.86;100461.13;4965405;23;20035;-83
2021/05/27 06:22:49;;;;;;;22.83;14.60;;;10.30;99.90;;;11.71;92.51;100466.50;4958253;29;20027;-82
2021/05/27 06:25:16;;;;;;;23.20;15.35;;;10.30;99.90;;;11.49;92.72;100465.25;4958140;28;20023;-84
2021/05/27 06:27:43;;;;;;;22.98;15.18;;;10.30;99.90;;;11.61;92.89;100470.69;4963611;28;20043;-84
2021/05/27 06:30:11;;;;;;;22.52;15.93;;;10.40;99.90;;;11.64;92.07;100472.75;4968432;28;20039;-83
2021/05/27 06:32:37;;;;;;;30.92;16.48;;;10.40;99.90;;;11.63;93.01;100471.91;4976012;28;20054;-84
2021/05/27 06:35:11;;;;;;;26.50;16.90;;;10.40;99.90;;;11.81;92.38;100483.50;4975525;29;20015;-83
2021/05/27 06:37:43;;;;;;;26.60;16.17;;;10.50;99.90;;;11.90;91.41;100484.06;4974419;28;20083;-86
2021/05/27 06:40:22;;;;;;;23.55;15.07;;;10.50;99.90;;;11.73;92.30;100480.91;4964009;28;20038;-83
2021/05/27 06:42:49;;;;;;;27.08;15.27;;;10.50;99.90;;;11.81;91.50;100477.91;4958509;28;20490;-87
2021/05/27 06:45:18;;;;;;;20.58;13.98;;;10.60;99.90;;;11.81;91.63;100485.50;4957192;29;20034;-84
2021/05/27 06:47:45;;;;;;;22.08;13.80;;;10.50;99.90;;;11.59;91.53;100476.63;4957002;29;20070;-85
2021/05/27 06:50:13;;;;;;;21.85;13.98;;;10.50;99.90;;;11.55;91.52;100486.16;4958067;28;20031;-82
2021/05/27 06:52:38;;;;;;;23.63;14.80;;;10.50;99.90;;;11.65;91.31;100491.94;4956591;29;20028;-84
2021/05/27 06:55:07;;;;;;;23.70;16.17;;;10.40;99.90;;;11.58;92.73;100491.81;4956486;28;20109;-85
2021/05/27 06:57:34;;;;;;;25.42;17.10;;;10.40;99.90;;;11.58;92.76;100491.00;4965225;28;20023;-82
2021/05/27 07:00:00;;;;;;;21.80;15.93;;;10.40;99.90;;;11.58;91.46;100496.59;4977459;28;20031;-86
2021/05/27 07:02:26;;;;;;;25.42;16.85;;;10.40;99.90;;;11.62;91.88;100491.88;4976726;28;20034;-85
2021/05/27 07:04:51;;;;;;;25.75;15.90;;;10.40;99.90;;;11.67;91.71;100499.16;4976180;28;20055;-83
2021/05/27 07:07:17;;;;;;;27.90;16.10;;;10.50;99.90;;;11.92;91.58;100501.28;4978412;28;20026;-81
2021/05/27 07:09:43;;;;;;;23.95;15.85;;;10.60;99.90;;;11.71;91.72;100500.88;4958362;28;20137;-85
2021/05/27 07:12:10;;;;;;;22.67;15.65;;;10.50;99.90;;;11.93;91.58;100496.50;4966120;29;20120;-86
2021/05/27 07:14:36;;;;;;;22.13;15.43;;;10.60;99.90;;;11.96;91.93;100495.78;4961339;29;20027;-84
2021/05/27 07:17:06;;;;;;;21.42;15.57;;;10.70;99.90;;;12.06;91.37;100503.56;4963565;29;20027;-83
2021/05/27 07:19:32;;;;;;;20.45;15.15;;;10.80;99.90;;;12.02;91.36;100509.09;4961728;28;20043;-85
2021/05/27 07:21:59;;;;;;;22.58;14.75;;;10.80;99.90;;;11.92;91.11;100504.09;4961213;29;20066;-83
2021/05/27 07:24:26;;;;;;;20.38;13.48;;;10.70;99.90;;;11.79;90.76;100507.41;4961598;29;20027;-84
2021/05/27 07:26:52;;;;;;;21.25;14.73;;;10.70;99.90;;;11.90;90.64;100514.03;4960922;29;20642;-85
2021/05/27 07:29:18;;;;;;;18.65;13.95;;;10.70;99.90;;;11.89;90.36;100507.63;4960408;28;20399;-82
2021/05/27 07:31:52;;;;;;;18.70;13.18;;;10.70;99.90;;;11.95;90.32;100513.72;4961128;29;20042;-85
2021/05/27 07:34:18;;;;;;;19.27;13.80;;;10.70;99.90;;;11.96;90.00;100504.97;4966998;28;20460;-82
2021/05/27 07:36:47;;;;;;;18.08;12.38;;;10.70;99.90;;;11.96;90.15;100506.97;4979522;28;20031;-81
2021/05/27 07:39:13;;;;;;;19.48;13.25;;;10.80;99.90;;;12.15;89.92;100504.13;4961794;28;20027;-82
2021/05/27 07:41:39;;;;;;;20.45;13.68;;;10.90;99.90;;;12.10;89.30;100502.44;4961642;29;20448;-84
2021/05/27 07:44:05;;;;;;;19.80;12.93;;;11.00;99.90;;;12.17;90.25;100503.75;4961560;29;20395;-83
2021/05/27 07:46:31;;;;;;;20.58;13.48;;;11.00;99.90;;;12.24;89.90;100506.66;4961917;29;20072;-83
2021/05/27 07:48:59;;;;;;;19.63;13.82;;;10.90;99.90;;;11.93;89.43;100511.31;4960416;28;20042;-83
2021/05/27 07:51:25;;;;;;;20.83;15.40;;;10.80;99.90;;;11.96;89.61;100520.97;4961150;28;20058;-83
2021/05/27 07:53:51;;;;;;;24.70;16.15;;;10.70;99.90;;;11.74;90.29;100513.31;4961264;29;20031;-83
2021/05/27 07:56:17;;;;;;;22.65;15.63;;;10.60;99.90;;;11.82;89.52;100520.66;4971489;28;20062;-79
2021/05/27 07:58:48;;;;;;;27.48;16.58;;;10.60;99.90;;;11.76;90.33;100513.75;4979653;28;20039;-81
2021/05/27 08:01:15;;;;;;;23.45;15.98;;;10.50;99.90;;;11.99;90.71;100531.41;4960524;29;20050;-83
2021/05/27 08:03:41;;;;;;;23.48;16.63;;;10.70;99.90;;;12.08;90.74;100524.41;4962655;29;20030;-82
2021/05/27 08:06:09;;;;;;;23.88;15.23;;;10.70;99.90;;;11.96;90.76;100532.16;4968609;28;20130;-79
2021/05/27 08:08:34;;;;;;;21.67;15.05;;;10.70;99.90;;;11.88;90.11;100533.22;4976727;28;20051;-83
2021/05/27 08:11:00;;;;;;;23.10;14.93;;;10.70;99.90;;;11.65;90.57;100536.69;4991640;28;20046;-86
2021/05/27 08:13:29;;;;;;;25.48;16.23;;;10.60;99.90;;;11.78;89.29;100539.41;4982683;28;20026;-84
2021/05/27 08:15:59;;;;;;;25.90;16.83;;;10.50;99.90;;;11.80;90.47;100537.84;4999237;28;20041;-79
2021/05/27 08:18:26;;;;;;;24.67;16.33;;;10.50;99.90;;;11.72;91.14;100533.25;4989683;28;20093;-86
2021/05/27 08:20:52;;;;;;;24.38;16.10;;;10.50;99.90;;;11.62;91.11;100531.06;4978113;28;20035;-84
2021/05/27 08:23:22;;;;;;;24.63;16.77;;;10.40;99.90;;;11.53;92.53;100545.22;4979880;28;20027;-82
2021/05/27 08:25:48;;;;;;;26.77;15.98;;;10.40;99.90;;;11.41;92.42;100545.38;4980288;28;20035;-82
2021/05/27 08:28:14;;;;;;;23.80;15.48;;;10.30;99.90;;;11.33;92.84;100540.00;4979365;28;20033;-85
2021/05/27 08:30:41;;;;;;;21.20;14.82;;;10.30;99.90;;;11.39;93.12;100538.53;4978139;28;20057;-82
2021/05/27 08:33:08;;;;;;;20.55;14.68;;;10.20;99.90;;;11.30;92.52;100546.34;4980029;28;20034;-86
2021/05/27 08:35:34;;;;;;;20.90;13.70;;;10.30;99.90;;;11.33;93.81;100554.00;4980234;28;20107;-83
2021/05/27 08:38:00;;;;;;;18.92;12.73;;;10.30;99.90;;;11.48;93.03;100555.91;4980237;28;20531;-85
2021/05/27 08:40:26;;;;;;;16.85;11.30;;;10.20;99.90;;;11.24;92.07;100543.00;4978765;28;20386;-86
2021/05/27 08:43:01;;;;;;;17.27;11.90;;;10.20;99.90;;;11.49;92.50;100549.16;4978711;28;20125;-85
2021/05/27 08:45:34;;;;;;;19.97;12.30;;;10.30;99.90;;;11.56;92.47;100552.88;4978031;28;20446;-84
2021/05/27 08:48:03;;;;;;;17.83;12.00;;;10.20;99.90;;;11.45;92.95;100553.84;4977995;28;20099;-85
2021/05/27 08:50:40;;;;;;;20.27;12.38;;;10.30;99.90;;;11.36;92.70;100553.25;4978016;28;20030;-83
2021/05/27 08:53:06;;;;;;;15.70;11.52;;;10.30;99.90;;;11.56;91.65;100552.06;4979383;28;20026;-85
2021/05/27 08:55:33;;;;;;;19.15;12.27;;;10.40;99.90;;;11.67;92.22;100560.69;4976742;28;20144;-86
2021/05/27 08:57:59;;;;;;;17.02;11.52;;;10.40;99.90;;;11.71;91.93;100565.25;4977063;28;20459;-85
2021/05/27 09:00:25;;;;;;;16.38;11.05;;;10.50;99.90;;;11.50;92.71;100561.94;4978255;28;20030;-85
2021/05/27 09:03:02;;;;;;;14.38;10.20;;;10.40;99.90;;;11.58;91.47;100569.31;4975824;28;20117;-85
2021/05/27 09:05:33;;;;;;;16.48;11.07;;;10.40;99.90;;;11.58;92.61;100563.72;4977164;28;20089;-86
2021/05/27 09:08:00;;;;;;;16.88;9.75;;;10.40;99.90;;;11.45;92.66;100576.22;4978065;28;20031;-84
2021/05/27 09:10:48;;;;;;;17.48;10.90;;;10.30;99.90;;;11.52;92.81;100568.00;4975436;28;20086;-85
2021/05/27 09:13:20;;;;;;;17.52;10.80;;;10.30;99.90;;;11.39;92.73;100577.69;4977145;28;20041;-86
2021/05/27 09:15:50;;;;;;;20.85;10.75;;;10.30;99.90;;;11.47;93.19;100571.06;4969244;28;20038;-88
2021/05/27 09:18:33;;;;;;;16.90;10.75;;;10.30;99.90;;;11.54;93.19;100585.22;4958437;29;20031;-86
2021/05/27 09:21:00;;;;;;;15.88;11.10;;;10.30;99.90;;;11.53;92.50;100584.41;4975976;28;20114;-85
2021/05/27 09:23:27;;;;;;;19.08;11.30;;;10.30;99.90;;;11.63;93.15;100589.41;4978971;28;20031;-87
2021/05/27 09:26:11;;;;;;;22.15;12.48;;;10.30;99.90;;;11.49;93.12;100596.69;4977351;28;20521;-87
2021/05/27 09:28:38;;;;;;;14.82;10.82;;;10.30;99.90;;;11.42;93.79;100593.72;4979413;28;20031;-82
2021/05/27 09:31:12;;;;;;;16.48;11.27;;;10.30;99.90;;;11.81;92.60;100598.22;4998154;28;20019;-82
2021/05/27 09:33:47;;;;;;;20.10;11.75;;;10.50;99.90;;;12.00;92.83;100594.63;4979721;28;20038;-87
2021/05/27 09:36:21;;;;;;;14.65;10.45;;;10.70;99.90;;;12.08;91.63;100591.59;4978771;28;20038;-87
2021/05/27 09:39:02;;;;;;;18.77;10.45;;;10.80;99.90;;;12.11;90.40;100593.66;4980173;28;20042;-87
2021/05/27 09:41:34;;;;;;;14.15;9.25;;;10.90;99.90;;;12.11;90.54;100602.03;4976620;28;20022;-87
2021/05/27 09:44:02;;;;;;;18.13;10.48;;;10.80;99.90;;;12.13;90.29;100601.69;4977497;28;20031;-89
2021/05/27 09:46:56;;;;;;;12.90;8.40;;;10.90;99.90;;;12.04;89.93;100599.09;4992763;28;20031;-86
2021/05/27 09:49:25;;;;;;;12.55;8.93;;;10.90;99.90;;;11.97;90.94;100607.38;4978680;28;20026;-85
2021/05/27 09:52:11;;;;;;;14.57;7.78;;;10.80;99.90;;;11.81;90.57;100606.63;4978811;28;20031;-85
2021/05/27 09:55:13;;;;;;;12.70;8.95;;;10.80;99.90;;;11.94;92.05;100610.91;4977431;28;20046;-89
2021/05/27 09:57:43;;;;;;;12.95;8.27;;;10.80;99.90;;;12.05;90.95;100608.31;4937681;28;20065;-87
2021/05/27 10:00:30;;;;;;;9.75;7.10;;;10.90;99.90;;;12.23;90.57;100612.28;4978661;28;20031;-87
2021/05/27 10:02:57;;;;;;;12.95;7.28;;;11.00;99.90;;;12.38;89.31;100610.56;4978076;28;20133;-87
2021/05/27 10:05:28;;;;;;;8.98;6.82;;;11.10;99.90;;;12.59;89.90;100620.16;4979815;28;20038;-87
2021/05/27 10:07:56;;;;;;;11.43;6.97;;;11.40;99.90;;;12.81;88.70;100615.75;4976424;28;20030;-86
2021/05/27 10:10:24;;;;;;;12.38;7.53;;;11.50;99.90;;;12.85;87.94;100616.63;4962699;28;20454;-86
2021/05/27 10:12:54;;;;;;;9.30;6.38;;;11.60;99.90;;;12.98;88.08;100620.03;4956383;28;20035;-86
2021/05/27 10:15:24;;;;;;;10.48;6.82;;;11.70;99.90;;;13.23;87.19;100626.88;4956256;28;20027;-86
2021/05/27 10:17:54;;;;;;;10.20;6.45;;;11.90;99.90;;;13.04;86.11;100630.56;4955397;28;20150;-87
2021/05/27 10:20:25;;;;;;;10.75;6.40;;;11.90;99.90;;;13.03;86.77;100634.56;4955429;29;20027;-86